Time;durP1;ratioP1;P1;durP2;ratioP2;P2;SDS_P1;SDS_P2;PMS_P1;PMS_P2;Temp;Humidity;BMP_temperature;BMP_pressure;BME280_temperature;BME280_humidity;BME280_pressure;Samples;Min_cycle;Max_cycle;Signal;HPM_P1;HPM_P2
2023/02/11 00:00:15;;;;;;;24.90;17.03;;;3.30;99.90;;;;;;5087711;28;20203;-70
2023/02/11 00:02:42;;;;;;;24.90;17.00;;;3.30;99.90;;;;;;5087245;28;20611;-69
2023/02/11 00:05:09;;;;;;;28.57;16.67;;;3.30;99.90;;;;;;5087277;28;20250;-70
2023/02/11 00:07:36;;;;;;;23.07;16.67;;;3.30;99.90;;;;;;5087042;28;20236;-70
2023/02/11 00:10:06;;;;;;;24.67;17.40;;;3.30;99.90;;;;;;5083376;28;20238;-70
2023/02/11 00:12:33;;;;;;;25.73;17.10;;;3.40;99.90;;;;;;5087860;28;20280;-70
2023/02/11 00:15:00;;;;;;;28.07;16.87;;;3.40;99.90;;;;;;5087322;28;20232;-71
2023/02/11 00:17:27;;;;;;;26.53;17.63;;;3.40;99.90;;;;;;5087408;28;20234;-71
2023/02/11 00:19:54;;;;;;;29.43;18.97;;;3.40;99.90;;;;;;5093841;28;20297;-71
2023/02/11 00:22:21;;;;;;;24.50;16.17;;;3.40;99.90;;;;;;5101638;28;20313;-71
2023/02/11 00:24:48;;;;;;;28.47;17.33;;;3.40;99.90;;;;;;5091073;28;20285;-71
2023/02/11 00:27:16;;;;;;;26.47;17.07;;;3.40;99.90;;;;;;5091788;28;20301;-71
2023/02/11 00:29:43;;;;;;;25.73;16.87;;;3.40;99.90;;;;;;5091460;28;20238;-71
2023/02/11 00:32:10;;;;;;;24.93;16.80;;;3.50;99.90;;;;;;5104836;28;20286;-71
2023/02/11 00:34:38;;;;;;;27.37;17.47;;;3.50;99.90;;;;;;5111407;28;20320;-71
2023/02/11 00:37:05;;;;;;;25.13;17.13;;;3.50;99.90;;;;;;5111501;28;20307;-71
2023/02/11 00:39:32;;;;;;;23.90;16.93;;;3.50;99.90;;;;;;5095535;28;20300;-71
2023/02/11 00:41:59;;;;;;;25.37;17.60;;;3.50;99.90;;;;;;5100288;28;20206;-70
2023/02/11 00:44:27;;;;;;;24.93;17.13;;;3.50;99.90;;;;;;5111485;28;20216;-71
2023/02/11 00:46:54;;;;;;;30.20;17.30;;;3.60;99.90;;;;;;5111687;28;20233;-69
2023/02/11 00:49:21;;;;;;;28.53;17.53;;;3.60;99.90;;;;;;5111589;28;20285;-70
2023/02/11 00:51:48;;;;;;;23.87;16.77;;;3.60;99.90;;;;;;5110144;28;20580;-71
2023/02/11 00:54:15;;;;;;;25.70;16.57;;;3.60;99.90;;;;;;5111037;28;20320;-71
2023/02/11 00:56:41;;;;;;;25.77;17.37;;;3.60;99.90;;;;;;5111487;28;20318;-71
2023/02/11 00:59:08;;;;;;;29.03;17.43;;;3.60;99.90;;;;;;5111533;28;20747;-71
2023/02/11 01:01:37;;;;;;;26.33;17.47;;;3.60;99.90;;;;;;5103105;28;20199;-71
2023/02/11 01:04:04;;;;;;;29.97;18.63;;;3.60;99.90;;;;;;5090438;28;20213;-71
2023/02/11 01:06:31;;;;;;;27.23;17.23;;;3.70;99.90;;;;;;5089777;28;20206;-72
2023/02/11 01:08:58;;;;;;;23.77;17.30;;;3.70;99.90;;;;;;5090613;28;20563;-71
2023/02/11 01:11:25;;;;;;;28.67;17.47;;;3.70;99.90;;;;;;5090861;28;20198;-71
2023/02/11 01:13:52;;;;;;;23.70;16.67;;;3.70;99.90;;;;;;5090846;28;20203;-70
2023/02/11 01:16:19;;;;;;;27.37;17.17;;;3.70;99.90;;;;;;5090350;28;20237;-71
2023/02/11 01:18:48;;;;;;;25.87;17.30;;;3.70;99.90;;;;;;5090090;28;20294;-71
2023/02/11 01:21:15;;;;;;;29.77;16.90;;;3.70;99.90;;;;;;5096749;28;20751;-71
2023/02/11 01:23:42;;;;;;;27.13;17.17;;;3.70;99.90;;;;;;5110428;28;20313;-71
2023/02/11 01:26:09;;;;;;;26.37;16.90;;;3.70;99.90;;;;;;5110655;28;20632;-70
2023/02/11 01:28:36;;;;;;;27.93;17.23;;;3.80;99.90;;;;;;5110468;28;20297;-70
2023/02/11 01:31:03;;;;;;;25.00;16.50;;;3.80;99.90;;;;;;5105420;28;20572;-71
2023/02/11 01:33:30;;;;;;;26.50;17.13;;;3.80;99.90;;;;;;5109896;28;20266;-71
2023/02/11 01:36:02;;;;;;;25.57;17.93;;;3.80;99.90;;;;;;5105474;28;20326;-71
2023/02/11 01:38:29;;;;;;;22.87;16.67;;;3.80;99.90;;;;;;5103235;27;20651;-71
2023/02/11 01:40:59;;;;;;;30.40;18.20;;;3.80;99.90;;;;;;5090198;28;20207;-71
2023/02/11 01:43:28;;;;;;;27.60;17.73;;;3.90;99.90;;;;;;5095607;28;20298;-71
2023/02/11 01:46:12;;;;;;;27.03;16.77;;;3.90;99.90;;;;;;5109161;28;20206;-71
2023/02/11 01:48:42;;;;;;;23.87;16.63;;;3.90;99.90;;;;;;5110216;28;20205;-70
2023/02/11 01:51:14;;;;;;;30.17;17.80;;;3.90;99.90;;;;;;5110465;28;20305;-69
2023/02/11 01:59:17;;;;;;;25.97;17.73;;;3.90;99.90;;;;;;5110326;28;20251;-70
2023/02/11 02:01:48;;;;;;;26.00;17.00;;;4.00;99.90;;;;;;5095141;28;20302;-69
2023/02/11 02:04:18;;;;;;;24.60;17.07;;;4.00;99.90;;;;;;5089784;28;20329;-70
2023/02/11 02:06:52;;;;;;;23.67;17.17;;;4.00;99.90;;;;;;5089711;28;20215;-70
2023/02/11 02:09:23;;;;;;;26.73;17.73;;;4.00;99.90;;;;;;5089375;28;20314;-70
2023/02/11 02:11:50;;;;;;;26.23;17.90;;;4.10;99.90;;;;;;5089577;28;20236;-70
2023/02/11 02:14:17;;;;;;;30.17;18.03;;;4.10;99.90;;;;;;5090210;28;20234;-72
2023/02/11 02:16:45;;;;;;;24.60;16.53;;;4.10;99.90;;;;;;5096354;28;20293;-71
2023/02/11 02:19:43;;;;;;;25.80;18.17;;;4.10;99.90;;;;;;5109434;28;20198;-72
2023/02/11 02:22:46;;;;;;;26.00;17.60;;;4.20;99.90;;;;;;5109748;28;20312;-71
2023/02/11 02:25:43;;;;;;;26.10;17.47;;;4.20;99.90;;;;;;5069080;28;20290;-72
2023/02/11 02:28:30;;;;;;;27.87;19.00;;;4.20;99.90;;;;;;5107236;28;20794;-71
2023/02/11 02:31:24;;;;;;;25.93;17.63;;;4.20;99.90;;;;;;5100108;28;20195;-71
2023/02/11 02:33:59;;;;;;;30.67;18.97;;;4.20;99.90;;;;;;5088576;28;20586;-71
2023/02/11 02:36:34;;;;;;;24.77;17.73;;;4.20;99.90;;;;;;5098002;28;20229;-71
2023/02/11 02:39:06;;;;;;;25.63;17.70;;;4.20;99.90;;;;;;5077569;28;20307;-71
2023/02/11 02:41:35;;;;;;;27.07;17.47;;;4.20;99.90;;;;;;5068974;28;20191;-71
2023/02/11 02:44:02;;;;;;;33.07;20.07;;;4.20;99.90;;;;;;5068428;28;20217;-71
2023/02/11 02:46:31;;;;;;;30.43;19.07;;;4.20;99.90;;;;;;5077817;28;20236;-71
2023/02/11 02:49:00;;;;;;;29.33;19.30;;;4.20;99.90;;;;;;5109569;28;20214;-70
2023/02/11 02:51:45;;;;;;;29.53;19.33;;;4.20;99.90;;;;;;5109040;28;20241;-70
2023/02/11 02:54:37;;;;;;;30.43;19.63;;;4.20;99.90;;;;;;5109175;28;20277;-70
2023/02/11 02:57:15;;;;;;;26.57;18.43;;;4.30;99.90;;;;;;5096800;27;20252;-70
2023/02/11 02:59:57;;;;;;;26.30;18.93;;;4.30;99.90;;;;;;5088570;28;20252;-70
2023/02/11 03:02:30;;;;;;;26.27;18.30;;;4.20;99.90;;;;;;5088447;28;20206;-70
2023/02/11 03:05:06;;;;;;;30.40;18.80;;;4.30;99.90;;;;;;5088637;28;20247;-70
2023/02/11 03:07:42;;;;;;;30.33;20.50;;;4.30;99.90;;;;;;5095839;28;20278;-70
2023/02/11 03:10:12;;;;;;;30.83;19.63;;;4.20;99.90;;;;;;5088230;28;20866;-70
2023/02/11 03:12:41;;;;;;;29.87;19.90;;;4.30;99.90;;;;;;5088404;28;20294;-70
2023/02/11 03:15:10;;;;;;;32.00;19.87;;;4.30;99.90;;;;;;5087901;28;20284;-70
2023/02/11 03:17:41;;;;;;;28.67;19.80;;;4.30;99.90;;;;;;5087984;28;20234;-70
2023/02/11 03:20:13;;;;;;;30.93;20.63;;;4.30;99.90;;;;;;5088185;28;20209;-71
2023/02/11 03:22:46;;;;;;;29.77;20.00;;;4.30;99.90;;;;;;5087839;28;20266;-71
2023/02/11 03:25:13;;;;;;;29.23;19.63;;;4.30;99.90;;;;;;5088477;28;20214;-71
2023/02/11 03:27:46;;;;;;;33.10;19.97;;;4.30;99.90;;;;;;5098679;28;20291;-71
2023/02/11 03:30:17;;;;;;;30.47;20.40;;;4.30;99.90;;;;;;5085204;28;20187;-71
2023/02/11 03:32:50;;;;;;;30.27;20.37;;;4.30;99.90;;;;;;5067894;28;20191;-70
2023/02/11 03:35:22;;;;;;;32.43;19.83;;;4.30;99.90;;;;;;5067765;28;20328;-71
2023/02/11 03:37:53;;;;;;;29.73;20.80;;;4.30;99.90;;;;;;5103289;28;20200;-71
2023/02/11 03:40:23;;;;;;;30.77;19.57;;;4.30;99.90;;;;;;5088078;28;20195;-71
2023/02/11 03:42:54;;;;;;;28.80;20.30;;;4.30;99.90;;;;;;5088088;28;20293;-70
2023/02/11 03:45:24;;;;;;;28.70;20.50;;;4.30;99.90;;;;;;5087748;28;20198;-70
2023/02/11 03:47:55;;;;;;;28.70;19.83;;;4.30;99.90;;;;;;5087939;28;20199;-70
2023/02/11 03:50:24;;;;;;;29.47;20.30;;;4.30;99.90;;;;;;5087521;28;20191;-70
2023/02/11 03:52:52;;;;;;;29.77;20.93;;;4.30;99.90;;;;;;5087449;28;20259;-70
2023/02/11 03:55:20;;;;;;;30.77;20.17;;;4.30;99.90;;;;;;5085533;28;20627;-70
2023/02/11 03:57:48;;;;;;;32.83;21.30;;;4.30;99.90;;;;;;5087781;28;20285;-70
2023/02/11 04:00:15;;;;;;;29.30;21.30;;;4.30;99.90;;;;;;5086851;28;20662;-70
2023/02/11 04:02:43;;;;;;;31.67;20.87;;;4.30;99.90;;;;;;5087697;28;20289;-71
2023/02/11 04:05:14;;;;;;;35.50;21.93;;;4.40;99.90;;;;;;5089812;28;20289;-70
2023/02/11 04:07:42;;;;;;;31.60;21.77;;;4.30;99.90;;;;;;5090574;28;20281;-70
2023/02/11 04:10:09;;;;;;;31.27;21.73;;;4.30;99.90;;;;;;5087714;28;20294;-70
2023/02/11 04:12:36;;;;;;;31.23;22.03;;;4.30;99.90;;;;;;5087158;28;20301;-70
2023/02/11 04:15:03;;;;;;;32.30;21.90;;;4.30;99.90;;;;;;5087214;28;20293;-70
2023/02/11 04:17:30;;;;;;;31.80;22.73;;;4.30;99.90;;;;;;5097534;28;20301;-70
2023/02/11 04:19:57;;;;;;;31.13;22.33;;;4.30;99.90;;;;;;5107270;28;20687;-70
2023/02/11 04:22:24;;;;;;;32.33;21.77;;;4.40;99.90;;;;;;5107699;28;20331;-70
2023/02/11 04:24:52;;;;;;;32.37;21.53;;;4.40;99.90;;;;;;5092693;28;20230;-70
2023/02/11 04:27:19;;;;;;;34.50;22.10;;;4.40;99.90;;;;;;5100181;28;20765;-70
2023/02/11 04:29:46;;;;;;;33.30;22.70;;;4.40;99.90;;;;;;5107650;28;20308;-71
2023/02/11 04:32:12;;;;;;;32.93;21.97;;;4.40;99.90;;;;;;5088334;28;20226;-72
2023/02/11 04:34:40;;;;;;;32.53;22.30;;;4.40;99.90;;;;;;5087102;28;20708;-71
2023/02/11 04:37:07;;;;;;;34.10;23.37;;;4.40;99.90;;;;;;5087530;28;20329;-71
2023/02/11 04:39:34;;;;;;;34.37;22.53;;;4.40;99.90;;;;;;5087434;28;20206;-71
2023/02/11 04:42:02;;;;;;;36.03;23.00;;;4.40;99.90;;;;;;5087234;28;20294;-71
2023/02/11 04:44:29;;;;;;;33.57;22.17;;;4.40;99.90;;;;;;5087216;28;20307;-70
2023/02/11 04:46:56;;;;;;;34.30;22.70;;;4.30;99.90;;;;;;5087281;28;20739;-71
2023/02/11 04:49:23;;;;;;;35.27;22.73;;;4.30;99.90;;;;;;5086546;28;20214;-71
2023/02/11 04:51:51;;;;;;;35.67;22.73;;;4.30;99.90;;;;;;5067353;28;20212;-72
2023/02/11 04:54:18;;;;;;;40.17;24.27;;;4.30;99.90;;;;;;5066954;28;20298;-71
2023/02/11 04:56:45;;;;;;;32.63;23.37;;;4.30;99.90;;;;;;5075359;28;20231;-72
2023/02/11 04:59:13;;;;;;;36.30;23.80;;;4.30;99.90;;;;;;5087502;28;20207;-72
2023/02/11 05:01:40;;;;;;;36.00;23.43;;;4.30;99.90;;;;;;5087574;28;20244;-72
2023/02/11 05:04:07;;;;;;;36.53;22.80;;;4.30;99.90;;;;;;5086907;28;20736;-71
2023/02/11 05:06:34;;;;;;;36.43;24.33;;;4.30;99.90;;;;;;5100212;28;20220;-71
2023/02/11 05:09:01;;;;;;;35.20;24.60;;;4.30;99.90;;;;;;5111198;28;20244;-71
2023/02/11 05:11:28;;;;;;;35.53;24.23;;;4.30;99.90;;;;;;5110951;28;20281;-70
2023/02/11 05:13:55;;;;;;;40.07;25.30;;;4.30;99.90;;;;;;5090512;28;20293;-70
2023/02/11 05:16:23;;;;;;;40.17;25.30;;;4.30;99.90;;;;;;5099184;28;20258;-70
2023/02/11 05:18:50;;;;;;;38.20;25.17;;;4.30;99.90;;;;;;5110722;28;20285;-71
2023/02/11 05:21:19;;;;;;;38.17;25.33;;;4.30;99.90;;;;;;5094490;28;20257;-71
2023/02/11 05:23:47;;;;;;;42.03;25.73;;;4.30;99.90;;;;;;5090340;28;20195;-70
2023/02/11 05:26:14;;;;;;;40.30;26.07;;;4.30;99.90;;;;;;5090845;28;20305;-71
2023/02/11 05:28:42;;;;;;;39.63;25.67;;;4.30;99.90;;;;;;5090493;28;20285;-71
2023/02/11 05:31:09;;;;;;;41.93;27.77;;;4.30;99.90;;;;;;5090631;28;20236;-71
2023/02/11 05:33:38;;;;;;;39.97;25.87;;;4.30;99.90;;;;;;5090534;28;20207;-71
2023/02/11 05:36:07;;;;;;;41.77;26.53;;;4.40;99.90;;;;;;5100455;28;20226;-71
2023/02/11 05:38:35;;;;;;;42.83;27.30;;;4.40;99.90;;;;;;5102523;28;20646;-71
2023/02/11 05:41:02;;;;;;;45.33;28.23;;;4.40;99.90;;;;;;5090624;28;20238;-71
2023/02/11 05:43:29;;;;;;;43.73;28.23;;;4.40;99.90;;;;;;5090429;28;20642;-69
2023/02/11 05:45:56;;;;;;;40.20;26.83;;;4.40;99.90;;;;;;5089046;28;20260;-70
2023/02/11 05:48:23;;;;;;;44.27;27.37;;;4.40;99.90;;;;;;5089934;28;20314;-70
2023/02/11 05:50:51;;;;;;;41.63;26.57;;;4.40;99.90;;;;;;5090025;28;20210;-71
2023/02/11 05:53:18;;;;;;;42.03;26.93;;;4.40;99.90;;;;;;5089908;28;20198;-70
2023/02/11 05:55:45;;;;;;;40.47;28.17;;;4.40;99.90;;;;;;5089905;28;20242;-70
2023/02/11 05:58:12;;;;;;;42.00;28.37;;;4.40;99.90;;;;;;5090556;28;20301;-71
2023/02/11 06:00:39;;;;;;;43.70;27.67;;;4.40;99.90;;;;;;5108430;28;20267;-70
2023/02/11 06:03:06;;;;;;;44.90;28.40;;;4.40;99.90;;;;;;5109821;28;20703;-71
2023/02/11 06:05:34;;;;;;;48.20;28.63;;;4.40;99.90;;;;;;5110177;28;20297;-71
2023/02/11 06:08:02;;;;;;;44.90;29.30;;;4.50;99.90;;;;;;5104758;28;20202;-72
2023/02/11 06:10:29;;;;;;;46.67;28.33;;;4.50;99.90;;;;;;5073133;28;20205;-72
2023/02/11 06:12:56;;;;;;;49.43;28.87;;;4.50;99.90;;;;;;5104552;28;20206;-72
2023/02/11 06:15:22;;;;;;;45.87;30.40;;;4.50;99.90;;;;;;5110077;28;20226;-72
2023/02/11 06:17:49;;;;;;;49.83;29.90;;;4.50;99.90;;;;;;5090721;28;20234;-70
2023/02/11 06:20:16;;;;;;;49.67;30.50;;;4.60;99.90;;;;;;5088875;28;20207;-71
2023/02/11 06:22:43;;;;;;;47.80;30.23;;;4.60;99.90;;;;;;5068647;28;20914;-71
2023/02/11 06:25:12;;;;;;;47.97;30.03;;;4.60;99.90;;;;;;5069364;28;20290;-71
2023/02/11 06:27:39;;;;;;;47.13;30.70;;;4.60;99.90;;;;;;5068998;28;20318;-71
2023/02/11 06:30:07;;;;;;;44.87;28.27;;;4.60;99.90;;;;;;5079529;28;20259;-71
2023/02/11 06:32:35;;;;;;;48.60;29.60;;;4.60;99.90;;;;;;5082548;28;20282;-71
2023/02/11 06:35:01;;;;;;;48.90;29.47;;;4.60;99.90;;;;;;5089292;28;20313;-71
2023/02/11 06:37:28;;;;;;;47.10;30.00;;;4.60;99.90;;;;;;5089405;28;20258;-71
2023/02/11 06:39:55;;;;;;;56.43;31.43;;;4.60;99.90;;;;;;5089327;28;20207;-71
2023/02/11 06:42:23;;;;;;;49.17;30.40;;;4.60;99.90;;;;;;5104303;28;20294;-71
2023/02/11 06:44:50;;;;;;;52.33;31.50;;;4.60;99.90;;;;;;5089032;28;20199;-71
2023/02/11 06:47:17;;;;;;;49.97;31.73;;;4.60;99.90;;;;;;5089546;28;20241;-71
2023/02/11 06:49:44;;;;;;;54.83;31.63;;;4.70;99.90;;;;;;5088843;28;20319;-71
2023/02/11 06:52:11;;;;;;;54.50;32.53;;;4.70;99.90;;;;;;5108429;28;20292;-71
2023/02/11 06:54:38;;;;;;;55.13;32.40;;;4.70;99.90;;;;;;5108762;28;20328;-71
2023/02/11 06:57:05;;;;;;;51.90;31.40;;;4.70;99.90;;;;;;5109177;28;20324;-71
2023/02/11 06:59:33;;;;;;;53.10;32.37;;;4.70;99.90;;;;;;5108932;28;20245;-71
2023/02/11 07:02:00;;;;;;;53.87;32.50;;;4.80;99.90;;;;;;5091037;28;20573;-71
2023/02/11 07:04:27;;;;;;;55.77;32.40;;;4.80;99.90;;;;;;5084201;28;20282;-71
2023/02/11 07:06:53;;;;;;;52.87;32.70;;;4.90;99.90;;;;;;5067939;28;20773;-71
2023/02/11 07:09:20;;;;;;;54.33;32.77;;;4.90;99.90;;;;;;5068259;28;20212;-71
2023/02/11 07:11:50;;;;;;;57.03;33.50;;;4.90;99.90;;;;;;5083136;28;20249;-70
2023/02/11 07:14:16;;;;;;;53.63;32.17;;;5.00;99.90;;;;;;5087702;28;20194;-71
2023/02/11 07:16:45;;;;;;;55.37;33.03;;;5.00;99.90;;;;;;5084781;28;20250;-71
2023/02/11 07:19:12;;;;;;;54.20;32.37;;;5.00;99.90;;;;;;5087092;28;20245;-70
2023/02/11 07:21:38;;;;;;;55.33;31.53;;;5.00;99.90;;;;;;5086581;28;20654;-70
2023/02/11 07:24:07;;;;;;;57.10;32.43;;;5.00;99.90;;;;;;5087641;28;20661;-70
2023/02/11 07:26:34;;;;;;;60.47;32.40;;;5.10;99.90;;;;;;5089432;28;20199;-69
2023/02/11 07:29:01;;;;;;;53.60;32.43;;;5.10;99.90;;;;;;5087466;28;20289;-69
2023/02/11 07:31:30;;;;;;;57.03;32.07;;;5.10;99.90;;;;;;5087125;28;20298;-69
2023/02/11 07:34:00;;;;;;;53.67;31.73;;;5.20;99.90;;;;;;5087030;28;20297;-69
2023/02/11 07:36:28;;;;;;;55.27;32.50;;;5.20;99.90;;;;;;5100493;28;20225;-71
2023/02/11 07:38:55;;;;;;;53.70;31.67;;;5.20;99.90;;;;;;5090147;28;20206;-70
2023/02/11 07:41:23;;;;;;;51.27;31.17;;;5.30;99.90;;;;;;5086826;28;20285;-70
2023/02/11 07:43:50;;;;;;;49.33;31.70;;;5.30;99.90;;;;;;5086591;28;20238;-71
2023/02/11 07:46:20;;;;;;;51.57;31.07;;;5.40;99.90;;;;;;5086830;28;20614;-71
2023/02/11 07:48:47;;;;;;;51.37;31.63;;;5.40;99.90;;;;;;5086865;28;20199;-70
2023/02/11 07:51:17;;;;;;;50.90;31.13;;;5.50;99.90;;;;;;5087666;28;20281;-70
2023/02/11 07:53:44;;;;;;;50.03;30.57;;;5.50;99.90;;;;;;5087255;28;20208;-70
2023/02/11 07:56:12;;;;;;;48.93;30.83;;;5.60;99.90;;;;;;5087557;28;21017;-72
2023/02/11 07:58:40;;;;;;;47.80;30.53;;;5.60;99.90;;;;;;5077247;28;20361;-70
2023/02/11 08:01:10;;;;;;;46.73;30.33;;;5.60;99.90;;;;;;5065360;28;20207;-70
2023/02/11 08:03:37;;;;;;;50.30;30.50;;;5.60;99.90;;;;;;5084906;28;20301;-71
2023/02/11 08:06:05;;;;;;;52.33;31.43;;;5.60;99.90;;;;;;5085264;28;20217;-71
2023/02/11 08:08:33;;;;;;;47.70;29.73;;;5.60;99.90;;;;;;5085027;28;20681;-70
2023/02/11 08:11:06;;;;;;;50.47;29.87;;;5.60;99.90;;;;;;5085458;28;20293;-71
2023/02/11 08:13:33;;;;;;;47.83;30.03;;;5.60;99.90;;;;;;5104540;28;20224;-71
2023/02/11 08:16:00;;;;;;;49.60;29.40;;;5.60;99.90;;;;;;5105866;28;20245;-71
2023/02/11 08:18:27;;;;;;;49.50;30.90;;;5.60;99.90;;;;;;5106029;28;20313;-70
2023/02/11 08:20:53;;;;;;;49.43;29.53;;;5.60;99.90;;;;;;5105532;28;20321;-71
2023/02/11 08:23:20;;;;;;;49.90;29.90;;;5.60;99.90;;;;;;5104743;28;20753;-70
2023/02/11 08:25:49;;;;;;;51.70;28.97;;;5.60;99.90;;;;;;5105437;27;20202;-71
2023/02/11 08:28:15;;;;;;;45.93;30.17;;;5.60;99.90;;;;;;5105602;28;20732;-71
2023/02/11 08:30:42;;;;;;;46.03;30.10;;;5.60;99.90;;;;;;5105636;28;20289;-71
2023/02/11 08:33:09;;;;;;;49.57;29.67;;;5.60;99.90;;;;;;5105406;28;20262;-71
2023/02/11 08:35:38;;;;;;;50.50;28.73;;;5.60;99.90;;;;;;5089670;28;20294;-71
2023/02/11 08:38:05;;;;;;;50.23;29.73;;;5.60;99.90;;;;;;5084958;28;20800;-71
2023/02/11 08:40:32;;;;;;;51.30;31.13;;;5.60;99.90;;;;;;5085241;28;20307;-71
2023/02/11 08:43:00;;;;;;;50.37;30.23;;;5.60;99.90;;;;;;5106428;28;20206;-70
2023/02/11 08:45:27;;;;;;;49.63;30.93;;;5.60;99.90;;;;;;5109127;28;20217;-71
2023/02/11 08:47:54;;;;;;;52.60;30.60;;;5.60;99.90;;;;;;5109381;28;20242;-70
2023/02/11 08:50:21;;;;;;;49.53;30.50;;;5.60;99.90;;;;;;5109475;28;20241;-71
2023/02/11 08:52:48;;;;;;;51.77;29.47;;;5.60;99.90;;;;;;5109003;28;20319;-70
2023/02/11 08:55:15;;;;;;;48.77;28.73;;;5.60;99.90;;;;;;5109643;28;20340;-70
2023/02/11 08:57:42;;;;;;;49.80;30.20;;;5.60;99.90;;;;;;5099020;28;20313;-71
2023/02/11 09:00:11;;;;;;;48.13;29.90;;;5.60;99.90;;;;;;5089126;28;20207;-70
2023/02/11 09:02:38;;;;;;;53.77;30.67;;;5.60;99.90;;;;;;5088499;28;20691;-70
2023/02/11 09:05:06;;;;;;;50.47;29.33;;;5.60;99.90;;;;;;5082292;28;20988;-71
2023/02/11 09:07:33;;;;;;;49.07;28.97;;;5.60;99.90;;;;;;5068269;28;20745;-70
2023/02/11 09:09:59;;;;;;;53.63;29.60;;;5.60;99.90;;;;;;5068011;28;20203;-71
2023/02/11 09:12:26;;;;;;;45.40;28.17;;;5.60;99.90;;;;;;5094832;28;20277;-71
2023/02/11 09:14:53;;;;;;;50.40;28.97;;;5.70;99.90;;;;;;5108833;28;20767;-71
2023/02/11 09:17:22;;;;;;;49.27;30.57;;;5.70;99.90;;;;;;5109269;28;20329;-71
2023/02/11 09:19:48;;;;;;;45.40;28.27;;;5.70;99.90;;;;;;5108710;28;20285;-70
2023/02/11 09:22:15;;;;;;;46.53;28.53;;;5.70;99.90;;;;;;5108442;28;20240;-71
2023/02/11 09:24:42;;;;;;;51.47;30.03;;;5.70;99.90;;;;;;5108687;28;20293;-71
2023/02/11 09:27:09;;;;;;;42.43;28.20;;;5.70;99.90;;;;;;5109009;28;20289;-71
2023/02/11 09:29:36;;;;;;;47.60;29.47;;;5.80;99.90;;;;;;5108714;28;20740;-71
2023/02/11 09:32:03;;;;;;;41.30;27.03;;;5.80;99.90;;;;;;5096460;28;20210;-71
2023/02/11 09:34:31;;;;;;;42.23;28.47;;;5.80;99.90;;;;;;5108590;28;20301;-70
2023/02/11 09:36:58;;;;;;;45.70;28.67;;;5.80;99.90;;;;;;5108597;28;20253;-70
2023/02/11 09:39:26;;;;;;;44.87;28.30;;;5.80;99.90;;;;;;5093855;27;20659;-70
2023/02/11 09:42:15;;;;;;;45.97;26.83;;;5.90;99.90;;;;;;5088375;28;20199;-70
2023/02/11 09:44:45;;;;;;;47.37;28.03;;;5.90;99.90;;;;;;5087883;28;20740;-70
2023/02/11 09:47:23;;;;;;;42.20;26.80;;;5.90;99.90;;;;;;5088017;28;20233;-70
2023/02/11 09:49:54;;;;;;;43.93;26.93;;;5.90;99.90;;;;;;5087825;28;20804;-70
2023/02/11 09:52:33;;;;;;;43.13;27.47;;;5.90;99.90;;;;;;5099490;28;20281;-70
2023/02/11 09:55:02;;;;;;;45.10;26.83;;;6.00;99.90;;;;;;5069510;28;20227;-70
2023/02/11 09:57:33;;;;;;;40.37;26.17;;;6.00;99.90;;;;;;5067689;28;20223;-70
2023/02/11 10:00:01;;;;;;;45.27;26.47;;;6.00;99.90;;;;;;5074964;28;20273;-70
2023/02/11 10:02:38;;;;;;;48.60;27.57;;;6.00;99.90;;;;;;5087945;28;20278;-70
2023/02/11 10:05:22;;;;;;;44.53;28.63;;;6.00;99.90;;;;;;5089768;28;20223;-70
2023/02/11 10:07:56;;;;;;;44.77;26.57;;;6.00;99.90;;;;;;5107865;28;20695;-71
2023/02/11 10:10:40;;;;;;;45.33;26.53;;;6.00;99.90;;;;;;5107813;28;20713;-71
2023/02/11 10:13:35;;;;;;;49.70;31.53;;;6.00;99.90;;;;;;5089994;28;20281;-71
2023/02/11 10:16:15;;;;;;;44.77;29.37;;;6.00;99.90;;;;;;5087715;28;20203;-71
2023/02/11 10:19:24;;;;;;;52.10;30.90;;;6.00;99.90;;;;;;5101365;28;20218;-71
2023/02/11 10:22:01;;;;;;;58.50;34.40;;;6.00;99.90;;;;;;5107222;28;21046;-71
2023/02/11 10:24:28;;;;;;;50.50;31.00;;;6.00;99.90;;;;;;5107932;28;20189;-71
2023/02/11 10:26:55;;;;;;;47.43;27.97;;;6.00;99.90;;;;;;5102143;28;20661;-71
2023/02/11 10:29:36;;;;;;;53.37;31.90;;;6.00;99.90;;;;;;5087596;28;20210;-71
2023/02/11 10:32:11;;;;;;;50.23;32.13;;;6.00;99.90;;;;;;5087354;28;20305;-71
2023/02/11 10:34:41;;;;;;;53.67;33.43;;;6.00;99.90;;;;;;5086814;28;20205;-71
2023/02/11 10:37:13;;;;;;;46.63;28.47;;;6.00;99.90;;;;;;5106048;28;20216;-71
2023/02/11 10:39:41;;;;;;;49.50;29.23;;;6.00;99.90;;;;;;5089995;28;20323;-71
2023/02/11 10:42:12;;;;;;;46.00;28.07;;;6.00;99.90;;;;;;5087325;28;20207;-71
2023/02/11 10:44:42;;;;;;;50.03;28.70;;;6.10;99.90;;;;;;5087026;28;20256;-71
2023/02/11 10:47:15;;;;;;;46.90;28.37;;;6.10;99.90;;;;;;5086985;28;20213;-70
2023/02/11 10:49:44;;;;;;;49.43;27.90;;;6.10;99.90;;;;;;5080792;28;20243;-71
2023/02/11 10:52:24;;;;;;;45.23;26.93;;;6.10;99.90;;;;;;5066835;28;20293;-71
2023/02/11 10:55:00;;;;;;;46.53;27.80;;;6.10;99.90;;;;;;5082661;28;20222;-71
2023/02/11 10:57:31;;;;;;;48.00;29.33;;;6.10;99.90;;;;;;5086840;28;20301;-72
2023/02/11 11:00:01;;;;;;;44.00;27.97;;;6.20;99.90;;;;;;5068718;28;20210;-71
2023/02/11 11:02:33;;;;;;;42.93;26.07;;;6.20;99.90;;;;;;5068572;28;20243;-71
2023/02/11 11:05:14;;;;;;;43.53;27.37;;;6.20;99.90;;;;;;5069646;28;20600;-71
2023/02/11 11:07:52;;;;;;;52.23;27.40;;;6.30;99.90;;;;;;5068023;28;20196;-71
2023/02/11 11:10:28;;;;;;;48.97;28.43;;;6.20;99.90;;;;;;5068200;28;20722;-69
2023/02/11 11:12:56;;;;;;;48.47;27.43;;;6.20;99.90;;;;;;5068215;28;20283;-72
2023/02/11 11:15:26;;;;;;;51.33;28.27;;;6.20;99.90;;;;;;5068506;28;20619;-71
2023/02/11 11:18:13;;;;;;;46.33;26.70;;;6.20;99.90;;;;;;5076705;28;20747;-70
2023/02/11 11:20:53;;;;;;;47.63;27.97;;;6.20;99.90;;;;;;5103754;28;20745;-69
2023/02/11 11:23:23;;;;;;;45.93;27.20;;;6.20;99.90;;;;;;5090108;28;20273;-69
2023/02/11 11:26:02;;;;;;;49.37;26.97;;;6.20;99.90;;;;;;5084149;28;20609;-69
2023/02/11 11:28:35;;;;;;;46.90;25.70;;;6.20;99.90;;;;;;5103137;28;20213;-70
2023/02/11 11:31:03;;;;;;;45.67;26.33;;;6.20;99.90;;;;;;5097625;28;20231;-70
2023/02/11 11:33:32;;;;;;;46.87;25.87;;;6.20;99.90;;;;;;5095851;28;20238;-69
2023/02/11 11:36:03;;;;;;;46.80;26.20;;;6.30;99.90;;;;;;5097483;28;20202;-69
2023/02/11 11:38:33;;;;;;;47.73;27.57;;;6.30;99.90;;;;;;5092419;28;20312;-69
2023/02/11 11:41:25;;;;;;;42.80;24.77;;;6.30;99.90;;;;;;5088543;28;20217;-70
2023/02/11 11:44:06;;;;;;;41.57;23.80;;;6.30;99.90;;;;;;5107764;28;20263;-70
2023/02/11 11:46:38;;;;;;;41.57;24.97;;;6.30;99.90;;;;;;5092327;28;20567;-72
2023/02/11 11:49:17;;;;;;;39.20;24.10;;;6.30;99.90;;;;;;5106797;28;20287;-69
2023/02/11 11:51:54;;;;;;;41.10;23.40;;;6.30;99.90;;;;;;5107141;28;20285;-70
2023/02/11 11:54:25;;;;;;;42.93;23.40;;;6.30;99.90;;;;;;5068201;28;20238;-70
2023/02/11 11:57:00;;;;;;;44.23;23.83;;;6.30;99.90;;;;;;5088444;28;20194;-70
2023/02/11 11:59:29;;;;;;;43.60;24.53;;;6.30;99.90;;;;;;5067645;28;20983;-69
2023/02/11 12:02:18;;;;;;;37.67;22.37;;;6.40;99.90;;;;;;5075203;28;20726;-70
2023/02/11 12:05:09;;;;;;;37.13;21.90;;;6.40;99.90;;;;;;5094127;28;20206;-70
2023/02/11 12:07:56;;;;;;;38.07;21.43;;;6.40;99.90;;;;;;5096194;28;20202;-71
2023/02/11 12:10:47;;;;;;;40.93;22.50;;;6.40;99.90;;;;;;5087541;28;20635;-71
2023/02/11 12:13:42;;;;;;;42.53;22.67;;;6.50;99.90;;;;;;5095902;28;20230;-70
2023/02/11 12:16:19;;;;;;;36.63;21.60;;;6.50;99.90;;;;;;5086783;28;20207;-71
2023/02/11 12:19:19;;;;;;;40.17;20.03;;;6.50;99.90;;;;;;5091765;28;20677;-70
2023/02/11 12:21:56;;;;;;;39.53;22.47;;;6.50;99.90;;;;;;5089640;28;20238;-71
2023/02/11 12:24:38;;;;;;;37.40;21.00;;;6.60;99.90;;;;;;5070837;28;20195;-71
2023/02/11 12:27:13;;;;;;;35.37;20.47;;;6.60;99.90;;;;;;5103019;28;20298;-71
2023/02/11 12:29:48;;;;;;;33.07;20.70;;;6.60;99.90;;;;;;5087514;28;20288;-68
2023/02/11 12:32:27;;;;;;;32.47;18.70;;;6.60;99.90;;;;;;5106063;28;20214;-71
2023/02/11 12:35:26;;;;;;;34.07;20.07;;;6.60;99.90;;;;;;5085610;28;20198;-71
2023/02/11 12:38:17;;;;;;;30.60;18.33;;;6.60;99.90;;;;;;5092775;28;20249;-70
2023/02/11 12:40:49;;;;;;;29.37;18.57;;;6.70;99.90;;;;;;5091127;28;20671;-71
2023/02/11 12:43:22;;;;;;;30.10;19.33;;;6.70;99.90;;;;;;5093397;28;20209;-71
2023/02/11 12:46:29;;;;;;;29.73;18.57;;;6.70;99.90;;;;;;5090738;28;20203;-70
2023/02/11 12:49:39;;;;;;;27.67;17.93;;;6.70;99.90;;;;;;5100669;28;20216;-70
2023/02/11 12:52:19;;;;;;;25.27;17.33;;;6.70;99.90;;;;;;5095342;28;20289;-70
2023/02/11 12:54:53;;;;;;;29.83;18.30;;;6.80;99.90;;;;;;5097707;28;20253;-71
2023/02/11 12:57:26;;;;;;;25.30;17.20;;;6.80;99.90;;;;;;5090957;28;20300;-72
2023/02/11 13:00:03;;;;;;;28.10;19.27;;;6.80;99.90;;;;;;5090653;28;20268;-70